Time;durP1;ratioP1;P1;durP2;ratioP2;P2;SDS_P1;SDS_P2;PMS_P1;PMS_P2;Temp;Humidity;BMP_temperature;BMP_pressure;BME280_temperature;BME280_humidity;BME280_pressure;Samples;Min_cycle;Max_cycle;Signal;HPM_P1;HPM_P2
2021/08/01 00:09:25;;;;;;;1.83;1.10;;;21.30;52.10;;;;;;21078029;28;20044;-67
2021/08/01 00:19:27;;;;;;;2.40;1.20;;;21.30;52.10;;;;;;21066364;28;20110;-67
2021/08/01 00:29:30;;;;;;;1.77;1.20;;;21.20;52.70;;;;;;21138256;28;20051;-63
2021/08/01 00:39:32;;;;;;;1.70;1.05;;;20.90;53.30;;;;;;21176171;28;20047;-65
2021/08/01 00:49:34;;;;;;;1.63;1.17;;;20.90;53.30;;;;;;21174893;28;20050;-66
2021/08/01 00:59:39;;;;;;;2.10;1.17;;;20.90;53.50;;;;;;21174761;28;20130;-63
2021/08/01 01:10:03;;;;;;;1.95;1.38;;;20.90;53.70;;;;;;21173786;28;20451;-66
2021/08/01 01:20:10;;;;;;;1.92;1.40;;;20.90;53.90;;;;;;21153740;28;20059;-66
2021/08/01 01:30:17;;;;;;;1.60;1.10;;;20.90;54.00;;;;;;21171279;28;20059;-65
2021/08/01 01:40:21;;;;;;;1.60;1.13;;;20.90;54.50;;;;;;21171729;28;20047;-63
2021/08/01 01:50:37;;;;;;;2.20;1.10;;;;;;;;;;21176972;28;20427;-64
2021/08/01 02:00:58;;;;;;;2.78;1.20;;;;;;;;;;21169376;28;20047;-66
2021/08/01 02:11:13;;;;;;;1.33;1.00;;;;;;;;;;21168275;28;20043;-66
2021/08/01 02:21:24;;;;;;;1.20;0.90;;;;;;;;;;21150523;28;20094;-65
2021/08/01 02:31:32;;;;;;;1.20;0.93;;;;;;;;;;21166556;28;20059;-63
2021/08/01 02:41:43;;;;;;;3.25;1.10;;;;;;;;;;21165437;28;20051;-65
2021/08/01 02:51:45;;;;;;;;;;;;;;;;;;21166433;28;20044;-67
2021/08/01 03:01:54;;;;;;;3.17;1.00;;;;;;;;;;21164768;28;19920;-67
2021/08/01 03:12:12;;;;;;;1.20;0.95;;;;;;;;;;21163362;28;20076;-65
2021/08/01 03:22:21;;;;;;;2.28;1.05;;;;;;;;;;21162977;28;20488;-66
2021/08/01 03:32:32;;;;;;;2.10;1.00;;;;;;;;;;21162537;28;20081;-65
2021/08/01 03:42:43;;;;;;;1.58;0.93;;;;;;;;;;21162212;28;20043;-66
2021/08/01 03:53:04;;;;;;;1.88;1.30;;;;;;;;;;21153600;28;20048;-65
2021/08/01 04:03:26;;;;;;;1.77;1.15;;;;;;;;;;21179962;28;20063;-66
2021/08/01 04:13:41;;;;;;;4.40;1.30;;;;;;;;;;21178229;28;20446;-64
2021/08/01 04:24:01;;;;;;;2.42;1.23;;;;;;;;;;21176574;28;20124;-63
2021/08/01 04:34:07;;;;;;;3.10;1.35;;;;;;;;;;21176452;28;20047;-65
2021/08/01 04:44:29;;;;;;;3.05;1.52;;;;;;;;;;21175056;28;20055;-62
2021/08/01 04:54:45;;;;;;;3.17;1.50;;;;;;;;;;21174581;28;20066;-63
2021/08/01 05:05:01;;;;;;;1.98;1.30;;;;;;;;;;21156883;28;20061;-64
2021/08/01 05:15:13;;;;;;;2.55;1.40;;;;;;;;;;21174700;28;20476;-65
2021/08/01 05:25:21;;;;;;;3.30;1.50;;;;;;;;;;21173181;28;20051;-64
2021/08/01 05:35:28;;;;;;;2.97;1.58;;;;;;;;;;21171857;28;20044;-65
2021/08/01 05:45:36;;;;;;;2.75;1.52;;;;;;;;;;21170738;28;20074;-65
2021/08/01 05:55:42;;;;;;;2.75;1.50;;;;;;;;;;21169885;28;20469;-63
2021/08/01 06:05:44;;;;;;;5.80;1.83;;;;;;;;;;21169443;28;20051;-64
2021/08/01 06:15:48;;;;;;;2.15;1.35;;;;;;;;;;21167498;28;20051;-63
2021/08/01 06:25:57;;;;;;;2.05;1.23;;;;;;;;;;21167113;28;20100;-66
2021/08/01 06:36:10;;;;;;;3.55;1.65;;;;;;;;;;21149290;28;20388;-65
2021/08/01 06:46:15;;;;;;;4.40;1.50;;;;;;;;;;21166037;28;20051;-65
2021/08/01 06:56:25;;;;;;;2.53;1.40;;;;;;;;;;21164043;28;20083;-65
2021/08/01 07:06:31;;;;;;;2.25;1.40;;;;;;;;;;21163976;28;20039;-67
2021/08/01 07:16:34;;;;;;;;;;;;;;;;;;21163554;28;20442;-62
2021/08/01 07:26:37;;;;;;;2.40;1.33;;;;;;;;;;21161871;28;19951;-64
2021/08/01 07:36:47;;;;;;;2.08;1.38;;;;;;;;;;21162380;28;20052;-66
2021/08/01 07:46:51;;;;;;;3.92;1.55;;;;;;;;;;21162221;28;20044;-66
2021/08/01 07:56:57;;;;;;;2.83;1.40;;;;;;;;;;21162365;28;20079;-65
2021/08/01 08:06:59;;;;;;;2.67;1.70;;;;;;;;;;21148530;28;20052;-66
2021/08/01 08:17:03;;;;;;;3.75;1.65;;;;;;;;;;21165698;28;20054;-65
2021/08/01 08:27:06;;;;;;;2.60;1.55;;;;;;;;;;21162395;28;20594;-68
2021/08/01 08:37:09;;;;;;;4.30;1.53;;;;;;;;;;21165239;28;20058;-66
2021/08/01 08:47:16;;;;;;;2.97;1.63;;;;;;;;;;21177592;28;20044;-65
2021/08/01 08:57:24;;;;;;;2.30;1.30;;;;;;;;;;21175037;28;20304;-65
2021/08/01 09:07:26;;;;;;;3.30;1.70;;;;;;;;;;21173353;28;20040;-63
2021/08/01 09:17:35;;;;;;;4.45;1.33;;;;;;;;;;21172492;28;20381;-66
2021/08/01 09:27:38;;;;;;;2.42;1.38;;;;;;;;;;21171958;28;20066;-66
2021/08/01 09:37:43;;;;;;;2.75;1.25;;;;;;;;;;21171647;28;20059;-66
2021/08/01 09:47:48;;;;;;;2.20;1.15;;;;;;;;;;21170543;28;20500;-67
2021/08/01 09:57:52;;;;;;;2.95;1.35;;;;;;;;;;21168896;28;20048;-64
2021/08/01 10:07:55;;;;;;;2.28;1.40;;;;;;;;;;21171688;28;20050;-65
2021/08/01 10:17:58;;;;;;;2.00;1.48;;;;;;;;;;21175066;28;20048;-63
2021/08/01 10:28:02;;;;;;;2.80;1.42;;;;;;;;;;21165988;28;20051;-66
2021/08/01 10:38:04;;;;;;;2.95;1.65;;;;;;;;;;21164897;28;20087;-65
2021/08/01 10:48:11;;;;;;;2.88;1.58;;;;;;;;;;21164092;28;20048;-66
2021/08/01 10:58:14;;;;;;;2.45;1.30;;;;;;;;;;21163441;28;20472;-62
2021/08/01 11:08:16;;;;;;;4.70;1.70;;;;;;;;;;21162792;28;20051;-64
2021/08/01 11:18:39;;;;;;;4.05;1.60;;;;;;;;;;21162839;28;20063;-63
2021/08/01 11:28:42;;;;;;;3.67;2.00;;;;;;;;;;21164209;28;20055;-64
2021/08/01 11:39:03;;;;;;;4.10;1.85;;;;;;;;;;21162824;28;20047;-66
2021/08/01 11:49:06;;;;;;;2.93;1.93;;;;;;;;;;21161293;28;20044;-63
2021/08/01 11:59:09;;;;;;;3.70;1.95;;;;;;;;;;21161010;28;20365;-67
2021/08/01 12:09:19;;;;;;;4.45;1.80;;;;;;;;;;21145578;28;20102;-66
2021/08/01 12:19:23;;;;;;;2.75;2.30;;;;;;;;;;21156309;28;20077;-61
2021/08/01 12:29:29;;;;;;;2.95;1.98;;;;;;;;;;21093592;28;20067;-65
2021/08/01 12:39:33;;;;;;;6.03;2.40;;;;;;;;;;21104945;28;20388;-68
2021/08/01 12:49:38;;;;;;;3.97;2.05;;;;;;;;;;21175222;28;20047;-66
2021/08/01 12:59:41;;;;;;;3.20;1.83;;;;;;;;;;21174961;28;20403;-67
2021/08/01 13:09:44;;;;;;;3.15;2.15;;;;;;;;;;21172792;28;20047;-65
2021/08/01 13:19:48;;;;;;;3.78;2.25;;;;;;;;;;21171226;28;20154;-67
2021/08/01 13:29:51;;;;;;;4.05;2.70;;;;;;;;;;21170431;28;20096;-68
2021/08/01 13:40:00;;;;;;;6.55;2.20;;;;;;;;;;21170100;28;20062;-65
2021/08/01 13:50:10;;;;;;;3.75;2.90;;;;;;;;;;21169251;28;20092;-65
2021/08/01 14:00:12;;;;;;;3.03;1.65;;;;;;;;;;21169277;28;20079;-65
2021/08/01 14:10:15;;;;;;;2.10;1.42;;;;;;;;;;21168584;28;20051;-66
2021/08/01 14:20:17;;;;;;;2.03;1.63;;;;;;;;;;21166735;28;20063;-64
2021/08/01 14:30:19;;;;;;;3.53;1.70;;;;;;;;;;21166641;28;20075;-64
2021/08/01 14:40:21;;;;;;;2.75;1.73;;;;;;;;;;21165179;28;20515;-65
2021/08/01 14:50:30;;;;;;;2.42;1.63;;;;;;;;;;21165115;28;20412;-65
2021/08/01 15:00:41;;;;;;;3.08;1.90;;;;;;;;;;21164932;28;20399;-65
2021/08/01 15:10:47;;;;;;;2.97;2.13;;;;;;;;;;21164605;28;20058;-67
2021/08/01 15:20:51;;;;;;;6.53;3.42;;;;;;;;;;21164443;28;20086;-65
2021/08/01 15:30:52;;;;;;;3.10;2.50;;;;;;;;;;21160847;28;20058;-65
2021/08/01 15:40:54;;;;;;;3.60;1.98;;;;;;;;;;21162468;28;20056;-65
2021/08/01 15:50:56;;;;;;;3.22;1.60;;;;;;;;;;21172049;28;20047;-65
2021/08/01 16:01:02;;;;;;;2.72;1.90;;;;;;;;;;21179575;28;20055;-67
2021/08/01 16:11:06;;;;;;;2.63;1.85;;;;;;;;;;21177775;28;20054;-64
2021/08/01 16:21:07;;;;;;;2.65;1.65;;;;;;;;;;21176304;28;20051;-64
2021/08/01 16:31:10;;;;;;;3.10;1.60;;;;;;;;;;21175879;28;20128;-67
2021/08/01 16:41:31;;;;;;;2.22;1.67;;;;;;;;;;21175071;28;20056;-68
2021/08/01 16:51:45;;;;;;;2.50;1.70;;;;;;;;;;21175105;28;20063;-65
2021/08/01 17:02:02;;;;;;;4.53;2.42;;;;;;;;;;21172013;28;20051;-65
2021/08/01 17:12:11;;;;;;;2.65;1.73;;;;;;;;;;21173544;28;20056;-64
2021/08/01 17:22:14;;;;;;;2.55;1.88;;;;;;;;;;21172296;28;20047;-67
2021/08/01 17:32:19;;;;;;;3.60;2.03;;;;;;;;;;21172837;28;20081;-63
2021/08/01 17:42:23;;;;;;;4.45;1.90;;;;;;;;;;21171730;28;20377;-66
2021/08/01 17:52:25;;;;;;;2.33;1.90;;;;;;;;;;21169198;28;20043;-64
2021/08/01 18:02:27;;;;;;;4.32;2.13;;;;;;;;;;21169069;28;20406;-66
2021/08/01 18:12:29;;;;;;;4.05;2.50;;;;;;;;;;21168891;28;20047;-64
2021/08/01 18:22:34;;;;;;;3.47;1.80;;;;;;;;;;21168338;28;20077;-66
2021/08/01 18:32:39;;;;;;;7.07;4.70;;;;;;;;;;21165567;28;20173;-64
2021/08/01 18:42:43;;;;;;;4.63;2.70;;;;;;;;;;21166177;28;20486;-66
2021/08/01 18:52:46;;;;;;;3.88;2.55;;;;;;;;;;21173564;28;20047;-64
2021/08/01 19:02:48;;;;;;;2.83;2.20;;;;;;;;;;21165788;28;20459;-65
2021/08/01 19:12:52;;;;;;;3.10;2.10;;;;;;;;;;21163929;28;20047;-63
2021/08/01 19:23:15;;;;;;;3.08;1.60;;;;;;;;;;21246397;27;20522;-65
2021/08/01 19:33:18;;;;;;;4.68;1.80;;;;;;;;;;21246102;27;20050;-65
2021/08/01 19:43:21;;;;;;;3.00;1.80;;;;;;;;;;21246974;28;20478;-65
2021/08/01 19:53:23;;;;;;;4.25;1.88;;;;;;;;;;21246354;28;20131;-65
2021/08/01 20:03:26;;;;;;;3.22;1.48;;;;;;;;;;21246825;28;20479;-66
2021/08/01 20:13:27;;;;;;;4.05;1.80;;;27.90;25.00;;;;;;21247926;28;20399;-65
2021/08/01 20:23:29;;;;;;;3.25;1.80;;;27.30;25.70;;;;;;21246330;28;20063;-65
2021/08/01 20:33:31;;;;;;;2.83;2.20;;;27.10;25.90;;;;;;21249019;27;20043;-66
2021/08/01 20:43:33;;;;;;;3.50;1.63;;;27.00;26.00;;;;;;21261839;27;20094;-66
2021/08/01 20:53:35;;;;;;;3.85;1.60;;;26.60;26.60;;;;;;21261008;27;20479;-67
2021/08/01 21:03:36;;;;;;;2.50;1.70;;;26.30;27.40;;;;;;21242391;27;20051;-67
2021/08/01 21:13:38;;;;;;;2.97;1.63;;;26.00;27.90;;;;;;21257793;27;20199;-67
2021/08/01 21:23:40;;;;;;;3.38;1.58;;;26.00;27.60;;;;;;21257360;27;20055;-68
2021/08/01 21:33:42;;;;;;;3.42;1.88;;;25.70;27.90;;;;;;21237580;27;20426;-67
2021/08/01 21:43:45;;;;;;;3.55;2.13;;;25.80;27.50;;;;;;21236066;27;20085;-62
2021/08/01 21:53:47;;;;;;;2.50;1.50;;;25.40;27.80;;;;;;21255035;27;20122;-63
2021/08/01 22:03:51;;;;;;;4.38;1.77;;;25.20;27.80;;;;;;21256677;27;20074;-65
2021/08/01 22:13:53;;;;;;;4.25;2.00;;;25.10;27.80;;;;;;21254310;27;20051;-66
2021/08/01 22:23:57;;;;;;;3.88;1.60;;;25.00;28.00;;;;;;21254074;27;20058;-68
2021/08/01 22:34:00;;;;;;;2.53;1.58;;;24.90;28.00;;;;;;21253455;27;20047;-66
2021/08/01 22:44:02;;;;;;;3.40;1.65;;;24.80;28.10;;;;;;21252412;27;20054;-68
2021/08/01 22:54:08;;;;;;;4.38;1.50;;;24.70;28.30;;;;;;21251257;27;20108;-67
2021/08/01 23:04:09;;;;;;;3.10;1.70;;;24.70;28.20;;;;;;21249435;27;20372;-64
2021/08/01 23:14:16;;;;;;;3.33;1.67;;;24.50;28.50;;;;;;21249288;27;20051;-66
2021/08/01 23:24:23;;;;;;;3.72;1.70;;;24.50;28.40;;;;;;21248305;27;20058;-66
2021/08/01 23:34:26;;;;;;;3.60;1.42;;;24.40;28.80;;;;;;21248057;27;20070;-66
2021/08/01 23:44:30;;;;;;;2.95;1.90;;;24.30;29.20;;;;;;21247059;28;20047;-62
2021/08/01 23:54:51;;;;;;;2.60;1.70;;;24.20;29.90;;;;;;21247297;28;20510;-63
